Time;durP1;ratioP1;P1;durP2;ratioP2;P2;SDS_P1;SDS_P2;PMS_P1;PMS_P2;Temp;Humidity;BMP_temperature;BMP_pressure;BME280_temperature;BME280_humidity;BME280_pressure;Samples;Min_cycle;Max_cycle;Signal;HPM_P1;HPM_P2
2023/08/31 00:01:53;;;;;;;13.15;4.50;;;;;;;12.33;100.00;100680.91;5112059;28;20100;-74
2023/08/31 00:04:19;;;;;;;14.75;5.18;;;;;;;12.36;100.00;100685.19;5104995;28;20530;-74
2023/08/31 00:06:46;;;;;;;14.75;4.55;;;;;;;12.34;100.00;100692.53;5105937;28;20039;-75
2023/08/31 00:09:12;;;;;;;15.43;5.00;;;;;;;12.34;100.00;100689.84;5109756;28;20097;-74
2023/08/31 00:11:38;;;;;;;12.85;4.78;;;;;;;12.35;100.00;100688.88;5103376;28;20028;-74
2023/08/31 00:14:04;;;;;;;15.98;4.53;;;;;;;12.32;100.00;100684.56;5117852;28;20066;-75
2023/08/31 00:16:29;;;;;;;14.70;5.35;;;;;;;12.32;100.00;100689.97;5116978;28;20110;-74
2023/08/31 00:18:56;;;;;;;16.75;5.30;;;;;;;12.31;100.00;100682.00;5111977;28;20027;-74
2023/08/31 00:21:22;;;;;;;13.52;5.05;;;;;;;12.29;100.00;100689.38;5112401;28;20553;-75
2023/08/31 00:23:48;;;;;;;16.85;5.78;;;;;;;12.24;100.00;100685.22;5110467;28;20069;-74
2023/08/31 00:26:13;;;;;;;16.38;5.70;;;;;;;12.22;100.00;100687.16;5105161;28;20032;-74
2023/08/31 00:28:39;;;;;;;14.25;5.70;;;;;;;12.24;100.00;100690.63;5115306;28;20030;-74
2023/08/31 00:31:05;;;;;;;15.45;5.22;;;;;;;12.22;100.00;100676.41;5111771;28;20031;-74
2023/08/31 00:33:30;;;;;;;16.83;5.30;;;;;;;12.22;100.00;100684.47;5108213;28;20035;-74
2023/08/31 00:36:03;;;;;;;17.17;5.85;;;;;;;12.20;100.00;100686.47;5115255;28;20051;-74
2023/08/31 00:38:28;;;;;;;16.38;5.90;;;;;;;12.15;100.00;100683.31;5104437;28;20026;-74
2023/08/31 00:40:54;;;;;;;20.00;6.25;;;;;;;12.17;100.00;100677.78;5108713;28;20383;-74
2023/08/31 00:43:20;;;;;;;15.98;5.63;;;;;;;12.16;100.00;100679.59;5109727;28;20054;-74
2023/08/31 00:45:48;;;;;;;16.77;5.85;;;;;;;12.12;100.00;100680.84;5112661;28;20028;-74
2023/08/31 00:48:16;;;;;;;17.17;5.65;;;;;;;12.13;100.00;100682.56;5102243;28;20024;-74
2023/08/31 00:50:42;;;;;;;16.45;5.88;;;;;;;12.10;100.00;100680.13;5106051;28;20084;-75
2023/08/31 00:53:08;;;;;;;14.10;5.32;;;;;;;12.06;100.00;100682.22;5107356;28;20119;-74
2023/08/31 00:55:33;;;;;;;15.57;5.78;;;;;;;12.07;100.00;100685.75;5110101;28;20071;-74
2023/08/31 00:58:00;;;;;;;15.07;5.75;;;;;;;12.04;100.00;100681.47;5113693;28;20030;-74
2023/08/31 01:00:49;;;;;;;16.40;6.10;;;;;;;12.04;100.00;100683.31;5108042;28;20473;-74
2023/08/31 01:03:23;;;;;;;15.30;5.32;;;;;;;11.98;100.00;100679.28;5106354;28;20070;-75
2023/08/31 01:05:49;;;;;;;16.23;6.25;;;;;;;11.95;100.00;100675.97;5105161;28;20092;-74
2023/08/31 01:08:29;;;;;;;17.27;6.05;;;;;;;11.95;100.00;100679.53;5109549;28;20110;-74
2023/08/31 01:11:06;;;;;;;17.02;5.53;;;;;;;11.96;100.00;100672.31;5110415;28;20020;-74
2023/08/31 01:13:34;;;;;;;14.38;5.05;;;;;;;11.92;100.00;100678.91;5101381;28;20149;-74
2023/08/31 01:16:03;;;;;;;16.60;5.97;;;;;;;11.88;100.00;100671.06;5116055;28;20489;-74
2023/08/31 01:18:31;;;;;;;15.45;5.15;;;;;;;11.89;100.00;100671.94;5104941;28;20028;-74
2023/08/31 01:21:08;;;;;;;15.02;5.80;;;;;;;11.88;100.00;100671.06;5111566;28;20027;-74
2023/08/31 01:23:53;;;;;;;19.98;6.25;;;;;;;11.84;100.00;100661.53;5113592;28;20110;-74
2023/08/31 01:26:20;;;;;;;16.40;5.78;;;;;;;11.87;100.00;100672.06;5116411;28;20043;-74
2023/08/31 01:28:47;;;;;;;17.50;5.63;;;;;;;11.82;100.00;100670.72;5108465;28;20033;-74
2023/08/31 01:31:12;;;;;;;14.50;5.18;;;;;;;11.83;100.00;100669.72;5106742;28;20025;-74
2023/08/31 01:33:38;;;;;;;17.40;5.70;;;;;;;11.82;100.00;100676.97;5110174;28;20085;-74
2023/08/31 01:36:11;;;;;;;18.15;5.60;;;;;;;11.79;100.00;100679.91;5111522;28;20402;-74
2023/08/31 01:38:39;;;;;;;16.70;5.72;;;;;;;11.78;100.00;100680.88;5109155;28;20055;-74
2023/08/31 01:41:13;;;;;;;18.48;6.20;;;;;;;11.77;100.00;100681.88;5107511;28;20032;-74
2023/08/31 01:43:40;;;;;;;16.08;6.25;;;;;;;11.77;100.00;100681.88;5096817;28;20482;-74
2023/08/31 01:46:07;;;;;;;18.58;6.80;;;;;;;11.76;100.00;100681.97;5110481;28;20054;-74
2023/08/31 01:48:38;;;;;;;19.10;6.72;;;;;;;11.74;100.00;100684.78;5106155;28;20032;-74
2023/08/31 01:51:05;;;;;;;18.13;7.00;;;;;;;11.78;100.00;100688.97;5103385;28;20027;-74
2023/08/31 01:53:30;;;;;;;17.40;6.88;;;;;;;11.79;100.00;100690.69;5109678;28;20581;-74
2023/08/31 01:55:56;;;;;;;18.30;6.90;;;;;;;11.81;100.00;100683.31;5106118;28;20043;-74
2023/08/31 01:58:22;;;;;;;18.38;6.32;;;;;;;11.82;100.00;100689.59;5094195;28;20376;-74
2023/08/31 02:00:48;;;;;;;17.52;6.43;;;;;;;11.79;100.00;100681.75;5103862;28;20024;-74
2023/08/31 02:03:13;;;;;;;18.35;7.00;;;;;;;11.80;100.00;100684.31;5110833;28;20411;-74
2023/08/31 02:05:38;;;;;;;18.27;6.55;;;;;;;11.80;100.00;100684.31;5101621;28;20074;-75
2023/08/31 02:08:04;;;;;;;17.63;6.63;;;;;;;11.80;100.00;100684.31;5112355;28;20028;-74
2023/08/31 02:10:29;;;;;;;18.00;6.88;;;;;;;11.83;100.00;100692.16;5109677;28;20027;-74
2023/08/31 02:12:55;;;;;;;19.42;6.93;;;;;;;11.82;100.00;100693.13;5100272;28;20074;-74
2023/08/31 02:15:20;;;;;;;19.30;7.45;;;;;;;11.88;100.00;100698.00;5099535;28;20085;-74
2023/08/31 02:17:45;;;;;;;20.13;7.80;;;;;;;11.92;100.00;100708.53;5105660;28;20386;-74
2023/08/31 02:20:11;;;;;;;18.25;6.60;;;;;;;11.94;100.00;100703.91;5108631;28;20032;-74
2023/08/31 02:22:37;;;;;;;18.35;7.97;;;;;;;11.92;100.00;100700.44;5101508;28;20042;-74
2023/08/31 02:25:02;;;;;;;20.80;7.85;;;;;;;11.93;100.00;100694.97;5107033;28;20048;-74
2023/08/31 02:27:28;;;;;;;18.77;7.38;;;;;;;11.96;100.00;100691.16;5102052;28;20028;-74
2023/08/31 02:29:53;;;;;;;18.95;8.13;;;;;;;11.98;100.00;100691.91;5103020;28;20032;-74
2023/08/31 02:32:19;;;;;;;18.98;8.32;;;;;;;12.02;100.00;100690.66;5109549;28;20031;-74
2023/08/31 02:34:44;;;;;;;19.70;7.78;;;;;;;12.04;100.00;100688.72;5111239;28;20031;-74
2023/08/31 02:37:10;;;;;;;19.15;7.70;;;;;;;12.02;100.00;100687.97;5109492;28;20040;-74
2023/08/31 02:39:35;;;;;;;18.38;7.72;;;;;;;12.00;100.00;100687.25;5106116;28;20020;-74
2023/08/31 02:42:01;;;;;;;19.75;8.00;;;;;;;11.95;100.00;100695.72;5107714;28;20495;-74
2023/08/31 02:44:26;;;;;;;19.52;8.75;;;;;;;11.94;100.00;100694.00;5107865;28;20028;-74
2023/08/31 02:46:52;;;;;;;21.95;9.95;;;;;;;11.89;100.00;100691.66;5106894;28;20135;-74
2023/08/31 02:49:17;;;;;;;22.90;10.50;;;;;;;11.93;100.00;100696.78;5100325;28;20028;-74
2023/08/31 02:51:42;;;;;;;21.67;11.02;;;;;;;11.87;100.00;100696.31;5110936;28;20118;-74
2023/08/31 02:54:08;;;;;;;23.25;11.82;;;;;;;11.88;100.00;100692.63;5110081;28;20047;-74
2023/08/31 02:56:33;;;;;;;24.13;12.82;;;;;;;11.86;100.00;100691.91;5100370;28;20093;-74
2023/08/31 02:58:58;;;;;;;27.10;14.80;;;;;;;11.80;100.00;100692.41;5107902;28;20036;-74
2023/08/31 03:01:24;;;;;;;26.33;14.80;;;;;;;11.78;100.00;100698.88;5106696;28;20028;-74
2023/08/31 03:03:50;;;;;;;25.77;14.40;;;;;;;11.81;100.00;100687.84;5107007;28;20059;-74
2023/08/31 03:06:15;;;;;;;26.27;15.32;;;;;;;11.78;100.00;100698.88;5102934;28;20023;-74
2023/08/31 03:08:41;;;;;;;24.90;13.68;;;;;;;11.78;100.00;100699.72;5111375;28;20478;-74
2023/08/31 03:11:06;;;;;;;25.08;14.10;;;;;;;11.75;100.00;100697.28;5110049;28;20028;-74
2023/08/31 03:13:32;;;;;;;24.85;13.57;;;;;;;11.79;100.00;100695.22;5110051;28;20032;-74
2023/08/31 03:15:58;;;;;;;24.08;12.50;;;;;;;11.78;100.00;100694.34;5101431;28;20032;-74
2023/08/31 03:18:23;;;;;;;22.80;12.10;;;;;;;11.78;100.00;100698.88;5105291;28;20035;-74
2023/08/31 03:20:49;;;;;;;23.30;12.50;;;;;;;11.75;100.00;100697.28;5104183;28;20092;-75
2023/08/31 03:23:14;;;;;;;24.20;11.32;;;;;;;11.75;100.00;100705.38;5099469;28;20023;-76
2023/08/31 03:25:40;;;;;;;22.05;11.45;;;;;;;11.74;100.00;100708.19;5106394;28;20071;-76
2023/08/31 03:28:05;;;;;;;22.35;12.18;;;;;;;11.72;100.00;100711.00;5094945;28;20024;-75
2023/08/31 03:30:31;;;;;;;21.63;10.80;;;;;;;11.69;100.00;100711.25;5099633;28;20142;-75
2023/08/31 03:32:56;;;;;;;20.65;11.00;;;;;;;11.69;100.00;100704.03;5105688;28;20114;-76
2023/08/31 03:35:26;;;;;;;23.90;12.18;;;;;;;11.68;100.00;100709.53;5103647;28;20024;-75
2023/08/31 03:37:51;;;;;;;;;;;;;;;11.67;100.00;100703.28;5101638;28;20070;-76
2023/08/31 03:40:17;;;;;;;25.67;15.38;;;;;;;11.62;100.00;100708.19;5103671;28;20403;-76
2023/08/31 03:42:42;;;;;;;24.85;14.35;;;;;;;11.59;100.00;100703.03;5106726;27;20291;-75
2023/08/31 03:45:08;;;;;;;28.20;15.02;;;;;;;11.61;100.00;100703.78;5099057;28;20031;-75
2023/08/31 03:47:33;;;;;;;27.90;15.85;;;;;;;11.60;100.00;100690.47;5100165;28;20032;-75
2023/08/31 03:49:58;;;;;;;29.08;17.35;;;;;;;11.60;100.00;100691.31;5100041;28;20442;-75
2023/08/31 03:52:24;;;;;;;32.83;15.98;;;;;;;11.61;100.00;100694.84;5104782;28;20027;-75
2023/08/31 03:54:51;;;;;;;29.10;15.85;;;;;;;11.60;100.00;100688.63;5102036;28;20471;-75
2023/08/31 03:57:16;;;;;;;31.75;16.65;;;;;;;11.57;100.00;100691.56;5102134;28;20097;-76
2023/08/31 03:59:41;;;;;;;26.95;16.27;;;;;;;11.50;100.00;100693.88;5096226;28;20115;-75
2023/08/31 04:02:06;;;;;;;28.23;16.85;;;;;;;11.52;100.00;100689.25;5098838;28;20095;-76
2023/08/31 04:04:32;;;;;;;30.13;16.63;;;;;;;11.54;100.00;100692.66;5097060;28;20054;-75
2023/08/31 04:06:58;;;;;;;28.02;15.57;;;;;;;11.55;100.00;100693.50;5103595;28;20500;-75
2023/08/31 04:09:23;;;;;;;26.17;14.88;;;;;;;11.54;100.00;100698.03;5094760;28;20031;-76
2023/08/31 04:11:49;;;;;;;27.10;15.75;;;;;;;11.56;100.00;100705.13;5102435;28;20028;-75
2023/08/31 04:14:14;;;;;;;27.95;14.93;;;;;;;11.54;100.00;100702.56;5102992;28;20055;-76
2023/08/31 04:16:39;;;;;;;26.23;13.10;;;;;;;11.51;100.00;100705.50;5100339;28;20027;-76
2023/08/31 04:19:04;;;;;;;24.10;12.13;;;;;;;11.51;100.00;100710.91;5104764;27;20034;-76
2023/08/31 04:21:30;;;;;;;25.13;13.55;;;;;;;11.51;100.00;100709.03;5105773;28;20040;-76
2023/08/31 04:23:55;;;;;;;23.67;12.20;;;;;;;11.47;100.00;100717.50;5103419;28;20548;-75
2023/08/31 04:26:21;;;;;;;26.30;13.00;;;;;;;11.49;100.00;100710.13;5106517;28;20027;-76
2023/08/31 04:28:46;;;;;;;28.42;13.10;;;;;;;11.51;100.00;100717.13;5101468;28;20032;-75
2023/08/31 04:31:11;;;;;;;23.00;11.43;;;;;;;11.54;100.00;100721.41;5100722;28;20387;-74
2023/08/31 04:33:38;;;;;;;22.52;11.50;;;;;;;11.49;100.00;100719.09;5112670;28;20032;-74
2023/08/31 04:36:04;;;;;;;23.38;12.35;;;;;;;11.49;100.00;100724.47;5112195;28;20028;-74
2023/08/31 04:38:31;;;;;;;23.63;11.43;;;;;;;11.50;100.00;100722.63;5099920;28;20028;-74
2023/08/31 04:40:59;;;;;;;23.58;10.73;;;;;;;11.51;100.00;100729.72;5112644;28;20035;-74
2023/08/31 04:43:25;;;;;;;21.27;9.30;;;;;;;11.54;100.00;100724.09;5109377;28;20027;-74
2023/08/31 04:45:51;;;;;;;21.80;10.40;;;;;;;11.49;100.00;100726.28;5113103;28;20359;-74
2023/08/31 04:48:17;;;;;;;21.33;9.85;;;;;;;11.49;100.00;100732.56;5104027;28;20046;-74
2023/08/31 04:50:42;;;;;;;20.85;9.48;;;;;;;11.47;100.00;100726.41;5105947;28;20051;-74
2023/08/31 04:53:07;;;;;;;19.23;8.55;;;;;;;11.46;100.00;100726.53;5107250;28;20449;-74
2023/08/31 04:55:33;;;;;;;20.83;9.02;;;;;;;11.47;100.00;100730.94;5107395;28;20056;-74
2023/08/31 04:57:58;;;;;;;20.23;8.77;;;;;;;11.44;100.00;100733.88;5101699;28;20100;-74
2023/08/31 05:00:23;;;;;;;20.80;9.18;;;;;;;11.45;100.00;100738.25;5113204;28;20020;-74
2023/08/31 05:02:49;;;;;;;20.45;8.20;;;;;;;11.49;100.00;100732.56;5108449;28;20513;-74
2023/08/31 05:05:14;;;;;;;21.63;8.10;;;;;;;11.50;100.00;100744.16;5107183;28;20028;-74
2023/08/31 05:07:40;;;;;;;18.85;8.10;;;;;;;11.53;100.00;100739.38;5100350;28;20016;-74
2023/08/31 05:10:06;;;;;;;18.55;7.85;;;;;;;11.53;100.00;100743.91;5102615;28;20054;-75
2023/08/31 05:12:32;;;;;;;21.05;8.45;;;;;;;11.47;100.00;100750.63;5105346;28;20498;-74
2023/08/31 05:14:57;;;;;;;20.73;8.52;;;;;;;11.47;100.00;100758.72;5108784;28;20039;-74
2023/08/31 05:17:22;;;;;;;19.48;7.68;;;;;;;11.48;100.00;100757.75;5105218;28;20035;-74
2023/08/31 05:19:47;;;;;;;19.98;8.45;;;;;;;11.51;100.00;100757.50;5112167;28;20102;-74
2023/08/31 05:22:13;;;;;;;19.75;7.65;;;;;;;11.50;100.00;100765.69;5100844;28;20112;-74
2023/08/31 05:24:39;;;;;;;17.95;7.57;;;;;;;11.49;100.00;100770.22;5104513;28;20035;-74
2023/08/31 05:27:04;;;;;;;23.10;8.45;;;;;;;11.43;100.00;100768.00;5105983;28;20031;-77
2023/08/31 05:29:30;;;;;;;18.27;7.60;;;;;;;11.41;100.00;100775.34;5095555;28;20102;-75
2023/08/31 05:31:55;;;;;;;19.45;7.55;;;;;;;11.46;100.00;100774.97;5082052;28;20024;-73
2023/08/31 05:34:22;;;;;;;19.00;7.15;;;;;;;11.50;100.00;100779.16;5095921;28;20024;-74
2023/08/31 05:36:48;;;;;;;19.38;7.28;;;;;;;11.48;100.00;100778.38;5102172;28;20020;-73
2023/08/31 05:39:13;;;;;;;17.58;6.38;;;;;;;11.51;100.00;100780.88;5092521;28;20027;-73
2023/08/31 05:41:41;;;;;;;18.67;7.20;;;;;;;11.52;100.00;100788.81;5103013;28;20031;-76
2023/08/31 05:44:07;;;;;;;20.77;7.07;;;;;;;11.53;100.00;100795.91;5110554;28;20023;-76
2023/08/31 05:46:33;;;;;;;18.83;7.10;;;;;;;11.54;100.00;100792.25;5103326;28;20134;-74
2023/08/31 05:48:58;;;;;;;19.52;7.32;;;;;;;11.56;100.00;100788.59;5104578;28;20051;-76
2023/08/31 05:51:24;;;;;;;18.58;6.90;;;;;;;11.57;100.00;100792.97;5095762;28;20040;-71
2023/08/31 05:53:49;;;;;;;19.05;7.72;;;;;;;11.62;100.00;100785.41;5089302;28;20098;-75
2023/08/31 05:56:14;;;;;;;19.23;7.03;;;;;;;11.62;100.00;100796.16;5095397;28;20020;-76
2023/08/31 05:58:40;;;;;;;19.48;7.78;;;;;;;11.65;100.00;100795.91;5091612;28;20028;-76
2023/08/31 06:01:05;;;;;;;20.30;7.30;;;;;;;11.67;100.00;100800.22;5093657;28;20356;-76
2023/08/31 06:03:31;;;;;;;17.48;6.88;;;;;;;11.71;100.00;100799.00;5094733;28;20063;-76
2023/08/31 06:05:57;;;;;;;19.17;6.57;;;;;;;11.76;100.00;100792.38;5101132;28;20034;-76
2023/08/31 06:08:23;;;;;;;17.30;6.22;;;;;;;11.80;100.00;100800.09;5092615;28;20058;-76
2023/08/31 06:10:48;;;;;;;16.30;6.25;;;;;;;11.82;100.00;100794.59;5089469;28;20421;-75
2023/08/31 06:13:13;;;;;;;18.73;6.82;;;;;;;11.86;100.00;100798.78;5087499;28;20033;-74
2023/08/31 06:15:39;;;;;;;20.58;7.35;;;;;;;11.84;100.00;100804.25;5091062;28;21879;-75
2023/08/31 06:18:05;;;;;;;21.17;7.55;;;;;;;11.93;100.00;100807.19;5101699;28;20059;-76
2023/08/31 06:20:31;;;;;;;20.88;7.57;;;;;;;11.99;100.00;100809.44;5099250;28;20043;-75
2023/08/31 06:22:56;;;;;;;18.77;7.65;;;;;;;12.03;100.00;100810.91;5095419;28;20051;-76
2023/08/31 06:25:22;;;;;;;20.05;7.40;;;;;;;12.08;100.00;100811.41;5090614;28;20020;-76
2023/08/31 06:27:48;;;;;;;20.13;7.18;;;;;;;12.12;100.00;100817.38;5091006;28;20058;-76
2023/08/31 06:30:15;;;;;;;16.95;6.60;;;;;;;12.17;100.00;100815.19;5099192;28;20030;-75
2023/08/31 06:32:46;;;;;;;18.52;6.47;;;;;;;12.21;100.00;100817.50;5095310;28;20107;-76
2023/08/31 06:35:12;;;;;;;19.23;7.15;;;;;;;12.26;100.00;100822.53;5101492;28;20027;-75
2023/08/31 06:37:38;;;;;;;20.55;7.03;;;;;;;12.30;100.00;100824.00;5092468;28;20038;-76
2023/08/31 06:40:05;;;;;;;19.45;7.28;;;;;;;12.37;100.00;100827.91;5094555;28;20435;-76
2023/08/31 06:42:30;;;;;;;18.88;6.68;;;;;;;12.40;100.00;100821.38;5094344;28;20055;-76
2023/08/31 06:44:56;;;;;;;18.45;6.93;;;;;;;12.45;100.00;100821.03;5102859;28;20060;-77
2023/08/31 06:47:22;;;;;;;17.95;7.07;;;;;;;12.50;100.00;100819.66;5095714;28;20073;-77
2023/08/31 06:49:47;;;;;;;21.17;7.55;;;;;;;12.56;100.00;100838.03;5106454;28;20416;-77
2023/08/31 06:52:13;;;;;;;20.48;7.40;;;;;;;12.57;100.00;100838.88;5100994;28;20364;-77
2023/08/31 06:54:38;;;;;;;19.77;7.10;;;;;;;12.62;100.00;100835.81;5100256;28;20498;-75
2023/08/31 06:57:03;;;;;;;19.02;7.25;;;;;;;12.67;100.00;100836.31;5097259;28;20020;-75
2023/08/31 06:59:29;;;;;;;19.48;7.65;;;;;;;12.74;100.00;100840.22;5091543;28;20032;-75
2023/08/31 07:01:54;;;;;;;18.65;6.63;;;;;;;12.79;100.00;100840.66;5104111;28;20101;-76
2023/08/31 07:04:19;;;;;;;23.13;7.93;;;;;;;12.86;100.00;100843.72;5121524;28;20149;-76
2023/08/31 07:06:45;;;;;;;20.00;7.32;;;;;;;12.89;100.00;100841.63;5110784;28;20024;-76
2023/08/31 07:09:10;;;;;;;24.40;7.60;;;;;;;12.99;100.00;100851.63;5101607;28;20024;-76
2023/08/31 07:11:35;;;;;;;21.00;7.88;;;;;;;13.04;100.00;100850.25;5102480;28;20044;-74
2023/08/31 07:14:01;;;;;;;24.23;7.82;;;;;;;13.10;100.00;100848.88;5102685;28;20053;-75
2023/08/31 07:16:26;;;;;;;20.98;7.35;;;;;;;13.14;100.00;100853.06;5104972;28;20495;-78
2023/08/31 07:18:52;;;;;;;20.00;7.25;;;;;;;13.22;100.00;100861.38;5094551;28;20749;-75
2023/08/31 07:21:17;;;;;;;22.05;7.75;;;;;;;13.26;100.00;100849.31;5097088;28;20031;-76
2023/08/31 07:23:43;;;;;;;21.42;7.95;;;;;;;13.33;100.00;100854.22;5102897;28;20040;-77
2023/08/31 07:26:11;;;;;;;19.83;7.50;;;;;;;13.37;100.00;100851.13;5092408;28;20028;-76
2023/08/31 07:28:36;;;;;;;18.17;7.03;;;;;;;13.43;100.00;100852.47;5092538;28;20028;-75
2023/08/31 07:31:06;;;;;;;20.85;7.72;;;;;;;13.51;100.00;100855.34;5094438;28;20047;-76
2023/08/31 07:33:32;;;;;;;;;;;;;;;13.56;100.00;100853.13;5092058;28;20038;-76
2023/08/31 07:36:03;;;;;;;19.85;7.80;;;;;;;13.61;100.00;100852.72;5099969;28;19912;-76
2023/08/31 07:38:30;;;;;;;22.77;7.93;;;;;;;13.67;100.00;100856.75;5093040;28;20028;-76
2023/08/31 07:40:55;;;;;;;19.30;7.68;;;;;;;13.71;100.00;100855.50;5096674;28;20047;-76
2023/08/31 07:43:21;;;;;;;20.33;8.50;;;;;;;13.75;100.00;100863.19;5096126;28;20062;-76
2023/08/31 07:45:46;;;;;;;24.08;7.65;;;;;;;13.81;100.00;100861.81;5098236;28;20020;-76
2023/08/31 07:48:11;;;;;;;21.00;7.88;;;;;;;13.90;100.00;100866.41;5089466;28;20031;-76
2023/08/31 07:50:37;;;;;;;18.85;8.00;;;;;;;13.95;100.00;100866.88;5095330;28;20027;-77
2023/08/31 07:53:03;;;;;;;26.20;7.68;;;;;;;13.99;100.00;100868.28;5093781;28;20475;-76
2023/08/31 07:55:28;;;;;;;19.13;7.32;;;;;;;14.05;100.00;100864.19;5095301;28;20032;-77
2023/08/31 07:57:54;;;;;;;21.25;8.20;;;;;;;14.11;100.00;100860.94;5084067;28;20039;-76
2023/08/31 08:00:19;;;;;;;16.40;5.80;;;;;;;14.16;100.00;100864.13;5098389;28;20024;-74
2023/08/31 08:02:45;;;;;;;17.98;7.22;;;;;;;14.21;100.00;100863.69;5088886;28;20044;-75
2023/08/31 08:05:11;;;;;;;19.45;6.63;;;;;;;14.28;100.00;100877.53;5093857;28;20028;-74
2023/08/31 08:07:36;;;;;;;21.77;6.28;;;;;;;14.32;100.00;100866.31;5093369;28;20027;-74
2023/08/31 08:10:02;;;;;;;18.83;6.35;;;;;;;14.37;100.00;100870.47;5100234;28;20019;-74
2023/08/31 08:12:36;;;;;;;20.98;7.35;;;;;;;14.42;100.00;100870.88;5095858;28;20028;-74
2023/08/31 08:15:02;;;;;;;20.05;6.40;;;;;;;14.48;100.00;100881.16;5102806;28;20020;-74
2023/08/31 08:17:27;;;;;;;23.40;8.00;;;;;;;14.52;100.00;100874.47;5095060;28;20058;-74
2023/08/31 08:19:52;;;;;;;18.67;6.75;;;;;;;14.56;100.00;100875.94;5107394;28;20035;-75
2023/08/31 08:22:17;;;;;;;15.30;4.65;;;;;;;14.60;100.00;100881.94;5105529;28;20157;-74
2023/08/31 08:24:43;;;;;;;22.70;7.05;;;;;;;14.66;100.00;100882.25;5100070;28;20032;-74
2023/08/31 08:27:08;;;;;;;16.48;5.05;;;;;;;14.71;100.00;100878.28;5098658;28;20079;-73
2023/08/31 08:29:33;;;;;;;20.60;7.65;;;;;;;14.74;100.00;100881.53;5098490;28;20040;-75
2023/08/31 08:31:59;;;;;;;21.75;6.90;;;;;;;14.80;100.00;100883.72;5107617;28;20012;-74
2023/08/31 08:34:26;;;;;;;19.25;6.55;;;;;;;14.87;100.00;100884.00;5110721;28;20015;-74
2023/08/31 08:36:52;;;;;;;20.40;8.48;;;;;;;14.90;100.00;100878.31;5113277;28;20012;-74
2023/08/31 08:39:18;;;;;;;23.27;7.32;;;;;;;14.95;100.00;100888.69;5117625;28;20032;-74
2023/08/31 08:41:44;;;;;;;18.52;6.20;;;;;;;14.98;100.00;100893.88;5118541;28;20047;-74
2023/08/31 08:44:10;;;;;;;19.10;7.50;;;;;;;15.02;100.00;100893.44;5109689;28;20009;-75
2023/08/31 08:46:37;;;;;;;17.33;6.00;;;;;;;15.06;100.00;100888.59;5119712;28;20046;-74
2023/08/31 08:49:05;;;;;;;22.27;8.13;;;;;;;15.12;100.00;100890.72;5118885;28;20019;-75
2023/08/31 08:51:31;;;;;;;21.05;7.88;;;;;;;15.17;100.00;100891.16;5118876;28;20045;-74
2023/08/31 08:53:59;;;;;;;18.20;7.53;;;;;;;15.23;100.00;100895.16;5114385;28;20036;-74
2023/08/31 08:56:24;;;;;;;19.50;7.40;;;;;;;15.27;100.00;100893.88;5102658;28;20011;-75
2023/08/31 08:58:49;;;;;;;22.30;8.27;;;;;;;15.31;100.00;100903.41;5103123;28;20031;-74
2023/08/31 09:01:17;;;;;;;18.58;7.28;;;;;;;15.34;100.00;100905.88;5093678;28;20471;-74
2023/08/31 09:03:43;;;;;;;20.30;7.13;;;;;;;15.38;100.00;100907.25;5091936;28;20039;-74
2023/08/31 09:06:10;;;;;;;20.60;7.38;;;;;;;15.44;100.00;100907.69;5097951;28;20112;-74
2023/08/31 09:08:37;;;;;;;18.73;7.25;;;;;;;15.46;100.00;100908.41;5097190;28;20563;-73
2023/08/31 09:11:02;;;;;;;19.63;7.15;;;;;;;15.49;100.00;100906.28;5097172;28;20019;-77
2023/08/31 09:13:31;;;;;;;20.60;7.60;;;;;;;15.49;100.00;100903.56;5098556;28;20031;-75
2023/08/31 09:15:57;;;;;;;19.77;7.15;;;;;;;15.54;100.00;100909.41;5106415;28;20580;-76
2023/08/31 09:18:31;;;;;;;22.90;7.15;;;;;;;15.57;100.00;100908.25;5093046;28;20172;-75
2023/08/31 09:20:57;;;;;;;20.60;7.57;;;;;;;15.58;100.00;100904.56;5093979;28;20028;-76
2023/08/31 09:23:23;;;;;;;18.60;7.32;;;;;;;15.65;100.00;100911.13;5102761;28;20410;-75
2023/08/31 09:25:53;;;;;;;16.90;6.57;;;;;;;15.69;100.00;100923.34;5094776;28;20036;-76
2023/08/31 09:28:23;;;;;;;17.33;6.47;;;;;;;15.73;100.00;100915.81;5095552;28;20134;-75
2023/08/31 09:30:51;;;;;;;18.05;7.03;;;;;;;15.77;100.00;100913.66;5092166;28;20031;-76
2023/08/31 09:33:18;;;;;;;19.45;7.00;;;;;;;15.83;100.00;100913.13;5108899;28;20030;-76
2023/08/31 09:35:53;;;;;;;18.13;7.13;;;;;;;15.88;100.00;100921.66;5098843;28;20035;-76
2023/08/31 09:38:19;;;;;;;17.02;7.13;;;;;;;15.88;100.00;100921.66;5103829;28;20035;-77
2023/08/31 09:40:45;;;;;;;19.13;7.68;;;;;;;15.95;100.00;100919.25;5107998;28;20024;-75
2023/08/31 09:43:10;;;;;;;18.92;7.13;;;;;;;15.98;100.00;100911.66;5115348;28;20062;-76
2023/08/31 09:45:38;;;;;;;19.25;7.20;;;;;;;16.02;100.00;100915.78;5103951;28;20034;-76
2023/08/31 09:48:04;;;;;;;20.60;7.25;;;;;;;16.12;100.00;100912.19;5096045;28;20038;-75
2023/08/31 09:50:31;;;;;;;20.90;8.10;;;;;;;16.14;100.00;100911.03;5105092;28;20032;-75
2023/08/31 09:53:04;;;;;;;18.70;6.35;;;;;;;16.18;100.00;100917.88;5100407;28;20028;-77
2023/08/31 09:55:31;;;;;;;19.70;6.57;;;;;;;16.21;100.00;100927.59;5095865;28;20024;-76
2023/08/31 09:57:59;;;;;;;15.30;5.85;;;;;;;16.16;100.00;100922.59;5097411;28;20024;-76
2023/08/31 10:00:29;;;;;;;17.88;6.43;;;;;;;16.22;100.00;100929.28;5101293;28;20027;-77
2023/08/31 10:02:58;;;;;;;17.88;6.00;;;;;;;16.27;100.00;100924.28;5081557;28;20197;-76
2023/08/31 10:05:24;;;;;;;18.95;6.18;;;;;;;16.33;100.00;100920.13;5104344;28;20031;-75
2023/08/31 10:07:50;;;;;;;17.35;6.63;;;;;;;16.38;100.00;100921.38;5106687;28;20051;-77
2023/08/31 10:10:16;;;;;;;18.90;6.50;;;;;;;16.47;100.00;100926.91;5105341;28;20114;-76
2023/08/31 10:12:44;;;;;;;14.38;5.50;;;;;;;16.56;100.00;100929.59;5099575;28;20031;-76
2023/08/31 10:15:10;;;;;;;14.90;5.50;;;;;;;16.61;98.20;100931.84;5093165;28;20459;-75
2023/08/31 10:17:36;;;;;;;15.90;5.78;;;;;;;16.66;98.75;100915.97;5106062;28;20490;-75
2023/08/31 10:20:02;;;;;;;15.95;5.78;;;;;;;16.68;97.13;100923.97;5098175;28;20118;-75
2023/08/31 10:22:29;;;;;;;14.68;5.13;;;;;;;16.65;94.35;100930.56;5108086;28;20032;-75
2023/08/31 10:25:01;;;;;;;14.40;5.05;;;;;;;16.62;91.43;100927.25;5097671;28;20118;-74
2023/08/31 10:27:27;;;;;;;12.07;5.07;;;;;;;16.57;93.11;100931.31;5096589;28;20019;-74
2023/08/31 10:29:53;;;;;;;18.85;6.13;;;;;;;16.54;94.19;100930.75;5098177;28;20024;-74
2023/08/31 10:32:19;;;;;;;16.67;6.50;;;;;;;16.54;96.76;100925.31;5103360;28;20085;-74
2023/08/31 10:35:04;;;;;;;19.08;6.50;;;;;;;16.56;96.35;100917.84;5089390;28;20078;-74
2023/08/31 10:37:29;;;;;;;21.10;6.32;;;;;;;16.58;95.49;100926.72;5094337;28;20426;-74
2023/08/31 10:40:07;;;;;;;14.43;5.20;;;;;;;16.63;95.44;100913.53;5103601;28;20032;-74
2023/08/31 10:42:32;;;;;;;20.73;5.45;;;;;;;16.70;93.17;100908.38;5094446;28;20074;-74
2023/08/31 10:45:05;;;;;;;14.40;4.38;;;;;;;16.73;93.24;100906.19;5102569;28;20059;-74
2023/08/31 10:47:41;;;;;;;16.35;5.15;;;;;;;16.78;94.02;100893.06;5105046;28;20024;-74
2023/08/31 10:50:20;;;;;;;13.95;4.65;;;;;;;16.82;91.96;100899.00;5107724;28;20027;-74
2023/08/31 10:52:45;;;;;;;11.27;3.78;;;;;;;16.84;88.42;100893.44;5095803;28;20483;-74
2023/08/31 10:55:11;;;;;;;15.15;4.78;;;;;;;16.90;86.32;100895.59;5111501;28;20075;-74
2023/08/31 10:57:36;;;;;;;12.48;4.50;;;;;;;16.97;87.89;100891.25;5104662;28;20073;-74
2023/08/31 11:00:02;;;;;;;14.15;4.75;;;;;;;17.05;87.35;100898.63;5103214;28;20078;-74
2023/08/31 11:02:30;;;;;;;15.95;5.13;;;;;;;17.12;86.86;100897.00;5103689;28;20540;-74
2023/08/31 11:05:01;;;;;;;12.00;4.57;;;;;;;17.14;84.83;100894.13;5095427;28;20104;-74
2023/08/31 11:07:27;;;;;;;14.30;4.50;;;;;;;17.08;80.75;100892.88;5102507;28;20020;-74